Time;durP1;ratioP1;P1;durP2;ratioP2;P2;SDS_P1;SDS_P2;PMS_P1;PMS_P2;Temp;Humidity;BMP_temperature;BMP_pressure;BME280_temperature;BME280_humidity;BME280_pressure;Samples;Min_cycle;Max_cycle;Signal;HPM_P1;HPM_P2
2022/02/27 00:01:45;;;;;;;3.03;1.60;;;21.40;53.00;;;;;;5091292;28;20462;-81
2022/02/27 00:04:13;;;;;;;3.23;2.10;;;21.40;53.00;;;;;;5088400;28;20829;-81
2022/02/27 00:06:44;;;;;;;3.00;1.90;;;21.40;53.00;;;;;;5107966;28;20456;-81
2022/02/27 00:09:15;;;;;;;2.60;1.33;;;21.40;53.00;;;;;;5109476;28;20428;-81
2022/02/27 00:11:42;;;;;;;1.87;1.40;;;21.40;53.10;;;;;;5104352;28;20491;-81
2022/02/27 00:14:09;;;;;;;2.40;1.60;;;21.40;53.10;;;;;;5093233;28;20403;-81
2022/02/27 00:16:38;;;;;;;1.90;1.63;;;21.40;53.10;;;;;;5107449;28;20412;-81
2022/02/27 00:19:08;;;;;;;1.80;1.50;;;21.40;53.10;;;;;;5066688;28;20467;-81
2022/02/27 00:21:34;;;;;;;2.90;1.70;;;21.40;53.10;;;;;;5105743;28;20421;-81
2022/02/27 00:24:02;;;;;;;2.30;1.63;;;21.40;53.10;;;;;;5100751;28;20426;-81
2022/02/27 00:26:28;;;;;;;2.17;1.90;;;21.40;53.10;;;;;;5108836;28;20426;-80
2022/02/27 00:28:54;;;;;;;1.93;1.73;;;21.40;53.10;;;;;;5108394;28;20400;-80
2022/02/27 00:31:20;;;;;;;2.40;1.47;;;21.40;53.10;;;;;;5088904;28;20212;-80
2022/02/27 00:33:47;;;;;;;3.00;2.00;;;21.40;53.10;;;;;;5108512;28;20439;-80
2022/02/27 00:36:13;;;;;;;4.27;1.80;;;21.40;53.10;;;;;;5080479;28;20435;-80
2022/02/27 00:38:38;;;;;;;2.30;1.70;;;21.40;53.10;;;;;;5101958;28;20459;-80
2022/02/27 00:41:06;;;;;;;3.97;2.33;;;21.30;53.10;;;;;;5105121;28;20440;-80
2022/02/27 00:43:32;;;;;;;3.23;1.57;;;21.40;53.20;;;;;;5103217;28;20234;-80
2022/02/27 00:46:00;;;;;;;2.57;2.03;;;21.40;53.10;;;;;;5110721;28;20639;-80
2022/02/27 00:48:26;;;;;;;2.27;2.07;;;21.40;53.20;;;;;;5091092;28;20472;-81
2022/02/27 00:50:54;;;;;;;2.03;1.80;;;21.40;53.10;;;;;;5086622;28;20819;-81
2022/02/27 00:53:20;;;;;;;2.47;1.87;;;21.30;53.10;;;;;;5086063;28;20415;-81
2022/02/27 00:55:46;;;;;;;2.63;1.57;;;21.30;53.10;;;;;;5069367;28;20417;-81
2022/02/27 00:58:12;;;;;;;3.43;1.73;;;21.40;53.20;;;;;;5094461;28;20492;-81
2022/02/27 01:00:43;;;;;;;2.90;1.70;;;21.40;53.20;;;;;;5114009;28;20458;-82
2022/02/27 01:03:10;;;;;;;2.43;1.67;;;21.30;53.10;;;;;;5102697;28;20419;-81
2022/02/27 01:05:37;;;;;;;1.70;1.43;;;21.30;53.10;;;;;;5096506;28;20408;-81
2022/02/27 01:08:06;;;;;;;2.17;1.77;;;21.40;53.20;;;;;;5112931;28;20457;-82
2022/02/27 01:10:35;;;;;;;2.60;2.40;;;21.30;53.10;;;;;;5060988;28;20431;-82
2022/02/27 01:13:01;;;;;;;1.63;1.47;;;21.30;53.10;;;;;;5085036;28;20763;-82
2022/02/27 01:15:27;;;;;;;2.83;2.00;;;21.30;53.10;;;;;;5095348;28;20419;-80
2022/02/27 01:17:54;;;;;;;2.20;1.50;;;21.30;53.10;;;;;;5078584;28;20491;-80
2022/02/27 01:20:20;;;;;;;2.43;1.50;;;21.30;53.10;;;;;;5100367;28;20407;-82
2022/02/27 01:22:47;;;;;;;1.87;1.53;;;21.30;53.10;;;;;;5109118;28;20416;-82
2022/02/27 01:25:13;;;;;;;1.73;1.63;;;21.30;53.10;;;;;;5094074;28;20420;-82
2022/02/27 01:27:39;;;;;;;2.37;2.17;;;21.30;53.10;;;;;;5102164;28;20476;-82
2022/02/27 01:30:06;;;;;;;1.90;1.20;;;21.30;53.10;;;;;;5116044;28;20226;-82
2022/02/27 01:32:32;;;;;;;2.87;1.50;;;21.30;53.10;;;;;;5102262;28;20476;-82
2022/02/27 01:34:58;;;;;;;3.03;1.90;;;21.30;53.10;;;;;;5086762;28;20432;-81
2022/02/27 01:37:24;;;;;;;4.57;1.90;;;21.30;53.10;;;;;;5097621;28;20438;-81
2022/02/27 01:39:50;;;;;;;1.90;1.60;;;21.30;53.10;;;;;;5096775;28;20154;-81
2022/02/27 01:42:18;;;;;;;1.83;1.60;;;21.30;53.10;;;;;;5088468;28;20257;-81
2022/02/27 01:44:45;;;;;;;2.03;1.87;;;21.30;53.10;;;;;;5093162;28;20190;-81
2022/02/27 01:47:12;;;;;;;1.93;1.43;;;21.30;53.10;;;;;;5092851;28;20443;-81
2022/02/27 01:49:47;;;;;;;2.47;1.60;;;21.30;53.10;;;;;;5068317;28;20495;-81
2022/02/27 01:52:15;;;;;;;4.00;1.80;;;21.30;53.10;;;;;;5096244;28;20746;-81
2022/02/27 01:54:41;;;;;;;1.73;1.40;;;21.30;53.10;;;;;;5096869;28;20411;-81
2022/02/27 01:57:10;;;;;;;2.17;1.73;;;21.30;53.10;;;;;;5113791;28;20419;-81
2022/02/27 01:59:38;;;;;;;4.00;1.80;;;21.30;53.10;;;;;;5090631;28;20499;-81
2022/02/27 02:02:04;;;;;;;2.13;1.40;;;21.30;53.10;;;;;;5113868;28;20420;-81
2022/02/27 02:04:31;;;;;;;1.97;1.77;;;21.30;53.10;;;;;;5077924;28;20415;-82
2022/02/27 02:06:57;;;;;;;2.00;1.27;;;21.30;53.10;;;;;;5112313;28;20407;-81
2022/02/27 02:09:23;;;;;;;1.70;1.40;;;21.30;53.50;;;;;;5078119;28;20428;-81
2022/02/27 02:11:49;;;;;;;3.60;1.33;;;21.30;53.10;;;;;;5093014;28;20437;-81
2022/02/27 02:14:15;;;;;;;1.93;1.50;;;21.30;53.10;;;;;;5103630;28;20416;-81
2022/02/27 02:16:45;;;;;;;2.30;1.57;;;21.30;53.10;;;;;;5111040;28;20866;-82
2022/02/27 02:19:16;;;;;;;2.90;1.47;;;21.30;53.10;;;;;;5088515;28;20531;-81
2022/02/27 02:21:47;;;;;;;2.87;1.60;;;21.30;53.10;;;;;;5089129;28;20415;-81
2022/02/27 02:24:15;;;;;;;2.57;1.60;;;21.30;53.10;;;;;;5079449;28;20412;-81
2022/02/27 02:26:43;;;;;;;1.67;1.50;;;21.30;53.10;;;;;;5094027;28;20419;-82
2022/02/27 02:29:11;;;;;;;2.37;1.50;;;21.30;53.20;;;;;;5088807;28;20432;-81
2022/02/27 02:31:37;;;;;;;2.50;1.50;;;21.30;53.20;;;;;;5103082;28;20499;-81
2022/02/27 02:34:15;;;;;;;1.80;1.40;;;21.30;53.20;;;;;;5095001;28;20423;-81
2022/02/27 02:36:43;;;;;;;1.53;1.30;;;21.30;53.20;;;;;;5085842;28;20441;-81
2022/02/27 02:39:11;;;;;;;1.70;1.50;;;21.20;53.10;;;;;;5090102;28;21562;-81
2022/02/27 02:41:38;;;;;;;2.77;1.70;;;21.20;53.10;;;;;;5108463;28;20416;-82
2022/02/27 02:44:05;;;;;;;2.70;1.40;;;21.30;53.20;;;;;;5088014;28;20432;-82
2022/02/27 02:46:31;;;;;;;2.13;1.53;;;21.30;53.10;;;;;;5115039;28;20412;-81
2022/02/27 02:48:58;;;;;;;2.57;1.77;;;21.30;53.10;;;;;;5087840;28;20423;-81
2022/02/27 02:51:26;;;;;;;2.10;1.60;;;21.30;53.20;;;;;;5110159;28;20427;-81
2022/02/27 02:53:51;;;;;;;2.33;1.30;;;21.20;53.10;;;;;;5096588;28;20864;-81
2022/02/27 02:56:18;;;;;;;2.07;1.47;;;21.30;53.20;;;;;;5087577;28;20451;-81
2022/02/27 02:58:44;;;;;;;2.07;1.53;;;21.30;53.10;;;;;;5083020;28;20225;-81
2022/02/27 03:01:13;;;;;;;1.87;1.30;;;21.30;53.10;;;;;;5107221;28;20511;-81
2022/02/27 03:03:41;;;;;;;1.53;1.37;;;21.20;53.10;;;;;;5086585;28;20205;-81
2022/02/27 03:06:10;;;;;;;1.67;1.50;;;21.20;53.10;;;;;;5071314;28;20458;-81
2022/02/27 03:08:37;;;;;;;1.77;1.33;;;21.30;53.10;;;;;;5089048;28;20423;-81
2022/02/27 03:11:03;;;;;;;3.67;1.67;;;21.20;53.10;;;;;;5083311;28;20485;-81
2022/02/27 03:13:29;;;;;;;1.80;1.70;;;21.20;53.10;;;;;;5084006;28;20435;-81
2022/02/27 03:15:54;;;;;;;2.53;1.50;;;21.30;53.10;;;;;;5106420;28;20889;-81
2022/02/27 03:18:21;;;;;;;3.10;1.53;;;21.20;53.10;;;;;;5094305;28;20467;-81
2022/02/27 03:20:47;;;;;;;1.70;1.23;;;21.20;53.10;;;;;;5078915;28;20420;-82
2022/02/27 03:23:16;;;;;;;1.90;1.30;;;21.20;53.10;;;;;;5092391;28;20412;-81
2022/02/27 03:25:43;;;;;;;2.20;1.33;;;21.20;53.10;;;;;;5084337;28;20408;-81
2022/02/27 03:28:09;;;;;;;1.40;1.30;;;21.20;53.10;;;;;;5108510;28;20484;-81
2022/02/27 03:30:36;;;;;;;2.33;1.60;;;21.20;53.10;;;;;;5112915;28;20423;-81
2022/02/27 03:33:06;;;;;;;2.13;1.50;;;21.20;53.10;;;;;;5085062;28;20435;-82
2022/02/27 03:35:32;;;;;;;1.90;1.70;;;21.20;53.10;;;;;;5106422;28;20427;-81
2022/02/27 03:37:58;;;;;;;2.70;1.80;;;21.20;53.10;;;;;;5101248;28;20460;-82
2022/02/27 03:40:24;;;;;;;2.47;1.63;;;21.20;53.10;;;;;;5093054;28;20201;-81
2022/02/27 03:42:50;;;;;;;1.97;1.57;;;21.20;53.10;;;;;;5100758;28;20408;-81
2022/02/27 03:45:16;;;;;;;1.60;1.40;;;21.20;53.10;;;;;;5091823;28;20199;-81
2022/02/27 03:47:43;;;;;;;2.40;1.40;;;21.20;53.10;;;;;;5100692;28;20415;-81
2022/02/27 03:50:15;;;;;;;1.47;1.37;;;21.20;53.10;;;;;;5081962;28;20449;-82
2022/02/27 03:52:41;;;;;;;1.63;1.30;;;21.20;53.10;;;;;;5085772;28;20424;-82
2022/02/27 03:55:16;;;;;;;1.57;1.47;;;21.20;53.10;;;;;;5098120;28;20452;-81
2022/02/27 03:57:43;;;;;;;2.07;1.53;;;21.20;53.10;;;;;;5099506;28;20556;-81
2022/02/27 04:00:13;;;;;;;1.80;1.10;;;21.20;53.10;;;;;;5100766;28;20408;-81
2022/02/27 04:02:41;;;;;;;2.10;1.60;;;21.20;53.10;;;;;;5083583;28;20454;-82
2022/02/27 04:05:08;;;;;;;1.90;1.53;;;21.20;53.10;;;;;;5101589;28;20511;-81
2022/02/27 04:07:34;;;;;;;1.90;1.50;;;21.20;53.10;;;;;;5096772;28;20409;-81
2022/02/27 04:09:59;;;;;;;1.87;1.40;;;21.20;53.20;;;;;;5100621;28;20420;-81
2022/02/27 04:12:25;;;;;;;2.90;1.30;;;21.20;53.10;;;;;;5101917;28;20403;-82
2022/02/27 04:14:51;;;;;;;1.97;1.33;;;21.20;53.10;;;;;;5086382;28;20181;-81
2022/02/27 04:17:18;;;;;;;2.27;1.30;;;21.20;53.10;;;;;;5105585;28;20408;-82
2022/02/27 04:19:44;;;;;;;1.40;1.30;;;21.20;53.10;;;;;;5081635;28;20259;-81
2022/02/27 04:22:10;;;;;;;4.33;1.40;;;21.20;53.10;;;;;;5102377;28;20439;-81
2022/02/27 04:31:20;;;;;;;1.40;1.20;;;21.20;53.10;;;;;;5097219;28;20445;-81
2022/02/27 04:33:47;;;;;;;1.80;1.20;;;21.10;53.10;;;;;;5103414;28;20416;-81
2022/02/27 04:36:13;;;;;;;2.07;1.70;;;21.20;53.30;;;;;;5107800;28;20225;-81
2022/02/27 04:38:40;;;;;;;1.83;1.43;;;21.10;53.10;;;;;;5111104;28;20904;-81
2022/02/27 04:41:08;;;;;;;1.80;1.50;;;21.20;53.20;;;;;;5105654;28;20403;-81
2022/02/27 04:43:35;;;;;;;1.73;1.17;;;21.20;53.20;;;;;;5092349;28;20402;-82
2022/02/27 04:46:00;;;;;;;1.83;1.20;;;21.10;53.10;;;;;;5090874;28;20410;-81
2022/02/27 04:48:26;;;;;;;1.33;1.10;;;21.20;53.20;;;;;;5091209;28;20466;-81
2022/02/27 04:50:52;;;;;;;1.57;1.33;;;21.20;53.20;;;;;;5073515;28;20559;-81
2022/02/27 04:53:18;;;;;;;1.47;1.27;;;21.20;53.20;;;;;;5102997;28;20472;-81
2022/02/27 04:55:44;;;;;;;1.70;1.33;;;21.20;53.20;;;;;;5106911;28;20180;-81
2022/02/27 04:58:10;;;;;;;1.87;1.67;;;21.20;53.20;;;;;;5107712;28;20202;-81
2022/02/27 05:00:36;;;;;;;1.77;1.63;;;21.20;53.20;;;;;;5092162;28;20427;-81
2022/02/27 05:03:02;;;;;;;1.57;1.30;;;21.20;53.20;;;;;;5089349;28;20204;-81
2022/02/27 05:05:28;;;;;;;1.50;1.20;;;21.20;53.20;;;;;;5093408;28;20249;-81
2022/02/27 05:07:54;;;;;;;1.27;1.10;;;21.20;53.10;;;;;;5092708;28;20427;-82
2022/02/27 05:10:20;;;;;;;1.60;1.33;;;21.20;53.10;;;;;;5085196;28;20452;-82
2022/02/27 05:12:48;;;;;;;1.53;1.23;;;21.20;53.10;;;;;;5089528;28;20185;-81
2022/02/27 05:15:13;;;;;;;1.57;1.20;;;21.20;53.10;;;;;;5070977;28;20435;-81
2022/02/27 05:17:39;;;;;;;1.77;1.20;;;21.20;53.10;;;;;;5069956;28;20420;-81
2022/02/27 05:20:07;;;;;;;1.93;1.40;;;21.20;53.10;;;;;;5091701;28;20182;-81
2022/02/27 05:22:33;;;;;;;1.60;1.30;;;21.20;53.10;;;;;;5097859;28;20599;-80
2022/02/27 05:25:01;;;;;;;1.80;1.23;;;21.10;53.00;;;;;;5082743;28;20420;-81
2022/02/27 05:27:27;;;;;;;1.47;1.33;;;21.20;53.10;;;;;;5082410;28;20454;-81
2022/02/27 05:30:03;;;;;;;;;;;;;;;;;;;;;
2022/02/27 05:32:32;;;;;;;1.47;1.20;;;21.20;53.10;;;;;;5099500;28;20440;-81
2022/02/27 05:34:58;;;;;;;2.83;1.40;;;21.10;53.00;;;;;;5092063;28;20932;-81
2022/02/27 05:37:25;;;;;;;1.50;1.33;;;21.20;53.20;;;;;;5085411;28;20411;-81
2022/02/27 05:39:53;;;;;;;1.93;1.63;;;21.10;53.00;;;;;;5107864;28;20267;-81
2022/02/27 05:42:20;;;;;;;1.50;1.37;;;21.20;53.20;;;;;;5105862;28;20416;-81
2022/02/27 05:44:49;;;;;;;1.37;1.27;;;21.10;53.10;;;;;;5091879;28;20407;-80
2022/02/27 05:47:17;;;;;;;1.70;1.30;;;21.10;53.10;;;;;;5106595;28;20422;-80
2022/02/27 05:49:43;;;;;;;1.73;1.20;;;21.10;53.10;;;;;;5091845;28;20929;-80
2022/02/27 05:52:09;;;;;;;2.00;1.33;;;21.10;53.10;;;;;;5085445;28;20416;-80
2022/02/27 05:54:35;;;;;;;1.67;1.40;;;21.10;53.10;;;;;;5086072;28;20447;-80
2022/02/27 05:57:02;;;;;;;1.57;1.07;;;21.10;53.10;;;;;;5081684;28;21479;-80
2022/02/27 05:59:31;;;;;;;1.27;1.10;;;21.10;53.10;;;;;;5071464;28;20451;-80
2022/02/27 06:01:57;;;;;;;1.20;1.10;;;21.10;53.10;;;;;;5091612;28;20408;-80
2022/02/27 06:04:40;;;;;;;1.33;1.10;;;21.10;53.10;;;;;;5109077;28;20427;-81
2022/02/27 06:07:12;;;;;;;1.60;1.20;;;21.10;53.10;;;;;;5093301;28;20169;-81
2022/02/27 06:09:39;;;;;;;1.77;1.10;;;21.10;53.10;;;;;;5082655;28;20429;-81
2022/02/27 06:12:20;;;;;;;1.50;1.40;;;21.10;53.20;;;;;;5075439;28;20428;-80
2022/02/27 06:14:46;;;;;;;1.50;1.40;;;21.10;53.20;;;;;;5099798;28;20434;-80
2022/02/27 06:17:12;;;;;;;2.00;1.20;;;21.10;53.20;;;;;;5073259;28;20424;-80
2022/02/27 06:19:38;;;;;;;2.00;1.27;;;21.10;53.20;;;;;;5098114;28;20475;-80
2022/02/27 06:22:07;;;;;;;1.60;1.40;;;21.10;53.20;;;;;;5096837;28;20826;-80
2022/02/27 06:24:33;;;;;;;1.73;1.40;;;21.10;53.20;;;;;;5080172;28;20419;-80
2022/02/27 06:27:01;;;;;;;1.30;1.20;;;21.10;53.20;;;;;;5079339;28;20407;-79
2022/02/27 06:29:27;;;;;;;1.40;1.10;;;21.10;53.20;;;;;;5078637;28;20424;-80
2022/02/27 06:31:53;;;;;;;1.40;1.17;;;21.20;53.30;;;;;;5086333;28;20431;-79
2022/02/27 06:34:21;;;;;;;1.50;1.20;;;21.20;53.20;;;;;;5100949;28;20493;-80
2022/02/27 06:36:48;;;;;;;2.33;1.30;;;21.20;53.20;;;;;;5084199;28;20427;-79
2022/02/27 06:39:17;;;;;;;2.60;1.30;;;21.20;53.20;;;;;;5089791;28;20463;-79
2022/02/27 06:41:50;;;;;;;1.23;0.97;;;21.20;53.20;;;;;;5107499;28;20424;-79
2022/02/27 06:44:16;;;;;;;2.23;1.30;;;21.20;53.20;;;;;;5115786;28;20403;-81
2022/02/27 06:46:44;;;;;;;1.37;1.23;;;21.20;53.20;;;;;;5113484;28;20407;-80
2022/02/27 06:49:19;;;;;;;1.77;1.13;;;21.20;53.20;;;;;;5092808;28;20423;-80
2022/02/27 06:51:45;;;;;;;1.43;1.10;;;21.20;53.20;;;;;;5117171;28;20427;-80
2022/02/27 06:54:22;;;;;;;1.70;1.30;;;21.20;53.20;;;;;;5089555;28;20791;-80
2022/02/27 06:56:49;;;;;;;1.73;1.10;;;21.20;53.20;;;;;;5091794;28;20504;-80
2022/02/27 06:59:26;;;;;;;1.70;1.17;;;21.20;53.20;;;;;;5097745;28;20452;-80
2022/02/27 07:01:54;;;;;;;1.93;1.27;;;21.20;53.20;;;;;;5091265;28;20425;-80
2022/02/27 07:04:21;;;;;;;1.50;1.10;;;21.20;53.30;;;;;;5095555;28;20417;-80
2022/02/27 07:07:13;;;;;;;2.10;1.47;;;21.20;53.30;;;;;;5084737;28;20421;-80
2022/02/27 07:09:41;;;;;;;2.07;1.27;;;21.20;53.30;;;;;;5078973;28;20423;-80
2022/02/27 07:12:08;;;;;;;1.73;1.40;;;21.20;53.30;;;;;;5090918;28;20412;-81
2022/02/27 07:14:36;;;;;;;1.60;1.30;;;21.20;53.30;;;;;;5103468;28;20420;-80
2022/02/27 07:17:03;;;;;;;1.20;0.97;;;21.20;53.20;;;;;;5078386;28;20492;-82
2022/02/27 07:19:33;;;;;;;1.73;1.20;;;21.20;53.20;;;;;;5096330;28;20483;-81
2022/02/27 07:21:59;;;;;;;1.40;1.10;;;21.20;53.20;;;;;;5063829;28;20425;-81
2022/02/27 07:24:29;;;;;;;2.00;1.40;;;21.30;53.30;;;;;;5077385;28;20397;-80
2022/02/27 07:26:57;;;;;;;1.57;1.00;;;21.30;53.20;;;;;;5096834;28;20396;-80
2022/02/27 07:29:25;;;;;;;1.63;1.20;;;21.30;53.30;;;;;;5096406;28;20421;-80
2022/02/27 07:31:53;;;;;;;1.77;1.20;;;21.30;53.30;;;;;;5078380;28;20452;-80
2022/02/27 07:34:23;;;;;;;1.53;1.10;;;21.30;53.80;;;;;;5096599;28;20421;-81
2022/02/27 07:36:51;;;;;;;1.77;1.10;;;21.30;53.30;;;;;;5080427;28;20424;-81
2022/02/27 07:39:30;;;;;;;1.23;1.07;;;21.30;53.30;;;;;;5097603;28;20456;-81
2022/02/27 07:42:03;;;;;;;2.13;1.10;;;21.40;53.30;;;;;;5079625;28;20423;-81
2022/02/27 07:44:40;;;;;;;1.30;1.20;;;21.40;53.30;;;;;;5097109;28;20412;-80
2022/02/27 07:47:16;;;;;;;1.50;1.20;;;21.40;53.40;;;;;;5097310;28;20377;-80
2022/02/27 07:49:43;;;;;;;1.20;0.93;;;21.40;53.40;;;;;;5097137;28;20412;-81
2022/02/27 07:52:11;;;;;;;1.90;1.23;;;21.40;53.40;;;;;;5097320;28;20439;-81
2022/02/27 07:54:49;;;;;;;2.23;1.03;;;21.40;53.30;;;;;;5079801;28;20417;-81
2022/02/27 07:57:26;;;;;;;1.57;1.13;;;21.40;53.30;;;;;;5082767;28;20404;-81
2022/02/27 07:59:55;;;;;;;1.40;1.07;;;21.40;53.30;;;;;;5102926;28;20460;-81
2022/02/27 08:02:23;;;;;;;1.57;1.47;;;21.40;53.40;;;;;;5117365;28;20388;-81
2022/02/27 08:04:51;;;;;;;1.80;1.40;;;21.40;53.40;;;;;;5099289;28;20250;-80
2022/02/27 08:07:29;;;;;;;1.73;1.00;;;21.50;53.40;;;;;;5098507;28;20431;-80
2022/02/27 08:10:06;;;;;;;1.53;1.23;;;21.50;53.40;;;;;;5099993;28;20414;-80
2022/02/27 08:12:33;;;;;;;1.77;1.47;;;21.40;53.30;;;;;;5075054;28;20770;-80
2022/02/27 08:15:00;;;;;;;1.50;1.30;;;21.50;53.40;;;;;;5099084;28;20491;-81
2022/02/27 08:17:27;;;;;;;1.30;0.97;;;21.50;53.40;;;;;;5100233;28;20423;-79
2022/02/27 08:20:00;;;;;;;1.40;0.90;;;21.50;53.40;;;;;;5117987;28;20471;-80
2022/02/27 08:22:31;;;;;;;1.97;1.30;;;21.50;53.40;;;;;;5100177;28;20502;-80
2022/02/27 08:24:58;;;;;;;2.00;1.10;;;21.50;53.40;;;;;;5100146;28;20434;-80
2022/02/27 08:27:30;;;;;;;1.30;0.90;;;21.50;53.40;;;;;;5117285;28;20415;-80
2022/02/27 08:30:02;;;;;;;1.50;1.10;;;21.50;53.40;;;;;;5117349;28;20425;-80
2022/02/27 08:35:14;;;;;;;2.40;1.47;;;21.50;53.30;;;;;;5117714;28;20414;-81
2022/02/27 08:37:43;;;;;;;1.10;1.00;;;21.50;53.40;;;;;;5099275;28;20412;-79
2022/02/27 08:40:27;;;;;;;1.50;1.10;;;21.50;53.30;;;;;;5082478;28;20900;-80
2022/02/27 08:43:18;;;;;;;1.40;1.23;;;21.50;53.30;;;;;;5088108;28;20454;-80
2022/02/27 08:49:11;;;;;;;1.73;1.30;;;21.50;53.40;;;;;;5101313;28;20495;-82
2022/02/27 08:51:45;;;;;;;1.50;1.10;;;21.50;53.40;;;;;;5083090;28;20407;-82
2022/02/27 08:54:20;;;;;;;1.50;1.13;;;21.50;53.40;;;;;;5108437;28;20412;-82
2022/02/27 08:56:48;;;;;;;1.30;1.07;;;21.50;53.40;;;;;;5109020;28;20893;-82
2022/02/27 08:59:15;;;;;;;2.93;1.30;;;21.50;53.40;;;;;;5086356;28;20235;-81
2022/02/27 09:01:47;;;;;;;2.60;1.30;;;21.50;53.50;;;;;;5060166;28;20454;-82
2022/02/27 09:04:15;;;;;;;1.30;1.10;;;21.50;53.60;;;;;;5076743;28;20416;-82
2022/02/27 09:06:41;;;;;;;1.27;1.10;;;21.50;53.50;;;;;;5088255;28;20444;-83
2022/02/27 09:09:10;;;;;;;2.40;1.30;;;21.50;53.50;;;;;;5093300;28;20408;-82
2022/02/27 09:11:40;;;;;;;2.03;1.00;;;21.50;53.40;;;;;;5090164;28;20514;-82
2022/02/27 09:14:10;;;;;;;1.40;1.10;;;21.60;53.50;;;;;;5101932;28;20428;-81
2022/02/27 09:16:36;;;;;;;1.47;1.20;;;21.60;53.50;;;;;;5090011;28;20471;-82
2022/02/27 09:19:02;;;;;;;1.67;1.23;;;21.50;53.40;;;;;;5088008;28;20528;-81
2022/02/27 09:21:28;;;;;;;1.87;1.23;;;21.50;53.40;;;;;;5078371;28;20427;-84
2022/02/27 09:24:01;;;;;;;2.57;1.03;;;21.60;53.50;;;;;;5111560;28;20442;-82
2022/02/27 09:26:31;;;;;;;3.07;1.10;;;21.60;53.60;;;;;;5088550;28;20427;-81
2022/02/27 09:29:04;;;;;;;1.30;1.20;;;21.60;53.50;;;;;;5076955;28;20488;-81
2022/02/27 09:31:33;;;;;;;1.50;1.20;;;21.60;53.50;;;;;;5065282;28;20482;-81
2022/02/27 09:34:08;;;;;;;1.33;1.03;;;21.60;53.50;;;;;;5103267;28;20401;-81
2022/02/27 09:36:34;;;;;;;1.33;1.07;;;21.60;53.50;;;;;;5069754;28;20481;-81
2022/02/27 09:39:04;;;;;;;1.63;1.30;;;21.60;53.50;;;;;;5096015;28;20488;-81
2022/02/27 09:41:34;;;;;;;1.60;1.43;;;21.60;53.50;;;;;;5096252;28;20420;-81
2022/02/27 09:44:08;;;;;;;1.60;1.40;;;21.60;53.50;;;;;;5116311;28;20405;-81
2022/02/27 09:46:41;;;;;;;2.13;1.10;;;21.60;53.50;;;;;;5100014;28;20407;-81
2022/02/27 09:49:14;;;;;;;2.23;1.30;;;21.60;53.50;;;;;;5100743;28;20435;-81
2022/02/27 09:51:45;;;;;;;3.17;1.47;;;21.60;53.50;;;;;;5084672;28;20425;-81
2022/02/27 09:54:15;;;;;;;1.67;1.30;;;21.60;53.50;;;;;;5116763;28;20415;-81
2022/02/27 09:56:54;;;;;;;2.07;1.67;;;21.60;53.50;;;;;;5112874;28;20418;-82
2022/02/27 09:59:21;;;;;;;2.73;1.60;;;21.60;53.50;;;;;;5100758;28;20448;-82
2022/02/27 10:02:06;;;;;;;1.40;1.27;;;21.60;53.50;;;;;;5095924;28;20413;-85
2022/02/27 10:04:52;;;;;;;2.47;1.40;;;21.60;53.60;;;;;;5076541;28;20413;-82
2022/02/27 10:07:23;;;;;;;2.00;1.47;;;21.60;53.60;;;;;;5077067;28;20421;-82
2022/02/27 10:10:07;;;;;;;1.53;1.30;;;21.60;53.60;;;;;;5053839;28;20410;-84
2022/02/27 10:12:36;;;;;;;2.80;1.40;;;21.60;53.60;;;;;;5067031;28;20398;-82
2022/02/27 10:15:09;;;;;;;2.23;1.70;;;21.60;53.70;;;;;;5070015;28;20418;-82
2022/02/27 10:17:41;;;;;;;3.57;1.73;;;21.60;53.60;;;;;;5053400;28;20425;-82
2022/02/27 10:23:53;;;;;;;2.20;1.60;;;21.60;53.60;;;;;;5065478;28;20385;-83
2022/02/27 10:26:28;;;;;;;3.40;1.50;;;21.50;53.50;;;;;;5066260;28;20429;-82
2022/02/27 10:29:17;;;;;;;1.93;1.30;;;21.60;53.60;;;;;;5060485;28;20417;-81
2022/02/27 10:31:48;;;;;;;1.80;1.37;;;21.60;53.60;;;;;;5060621;28;20421;-82
2022/02/27 10:34:37;;;;;;;5.33;1.73;;;21.60;53.60;;;;;;5074832;28;20414;-82
2022/02/27 10:37:18;;;;;;;3.60;2.00;;;21.60;53.60;;;;;;5057153;28;20414;-82
2022/02/27 10:39:49;;;;;;;2.80;1.50;;;21.60;53.60;;;;;;5062503;28;20466;-82
2022/02/27 10:42:29;;;;;;;2.63;1.70;;;21.60;53.60;;;;;;5076754;28;20440;-81
2022/02/27 10:45:05;;;;;;;4.67;1.97;;;21.60;53.60;;;;;;5075052;28;20409;-82
2022/02/27 10:47:39;;;;;;;2.97;1.60;;;21.60;53.60;;;;;;5059816;28;20416;-82
2022/02/27 10:50:19;;;;;;;2.50;1.50;;;21.60;53.60;;;;;;5095319;28;20490;-82
2022/02/27 10:52:48;;;;;;;3.00;1.90;;;21.60;53.60;;;;;;5076606;28;20421;-82
2022/02/27 10:55:16;;;;;;;2.73;1.33;;;21.60;53.60;;;;;;5100777;28;20447;-82
2022/02/27 10:57:47;;;;;;;2.93;1.77;;;21.60;53.60;;;;;;5102229;28;20419;-82
2022/02/27 11:00:29;;;;;;;3.63;1.50;;;21.60;53.60;;;;;;5089577;28;20413;-81
2022/02/27 11:02:59;;;;;;;3.27;1.47;;;21.60;53.60;;;;;;5104486;28;20405;-86
2022/02/27 11:05:30;;;;;;;2.80;1.40;;;21.60;53.60;;;;;;5097820;28;20412;-82
2022/02/27 11:08:11;;;;;;;5.00;2.33;;;21.60;53.60;;;;;;5097309;28;20509;-82
2022/02/27 11:10:52;;;;;;;4.30;1.53;;;21.60;53.60;;;;;;5106507;28;20407;-82
2022/02/27 11:13:24;;;;;;;3.50;1.90;;;21.60;53.70;;;;;;5086099;28;20419;-82
2022/02/27 11:15:51;;;;;;;3.40;2.73;;;21.60;53.60;;;;;;5079390;28;20428;-83
2022/02/27 11:18:27;;;;;;;;;;;;;;;;;;;;;
2022/02/27 11:21:09;;;;;;;5.10;3.30;;;21.60;53.70;;;;;;5109770;28;20427;-82
2022/02/27 11:23:53;;;;;;;5.37;3.60;;;21.60;53.70;;;;;;5085772;28;20422;-81
2022/02/27 11:26:33;;;;;;;19.67;5.60;;;21.60;53.70;;;;;;5106077;28;20480;-82
2022/02/27 11:29:01;;;;;;;9.60;5.23;;;21.60;53.70;;;;;;5077337;28;20414;-82
2022/02/27 11:31:28;;;;;;;8.23;4.40;;;21.60;53.70;;;;;;5077970;28;20440;-83
2022/02/27 11:34:16;;;;;;;11.10;5.40;;;21.60;53.70;;;;;;5092337;28;20462;-81
2022/02/27 11:36:58;;;;;;;14.43;6.30;;;21.60;53.70;;;;;;5110164;28;20411;-81
2022/02/27 11:42:12;;;;;;;25.40;11.30;;;21.60;53.70;;;;;;5087293;28;20786;-81
2022/02/27 11:44:44;;;;;;;26.40;11.87;;;21.60;53.70;;;;;;5093768;28;20445;-81
2022/02/27 11:47:16;;;;;;;32.67;13.97;;;21.60;53.70;;;;;;5084058;28;20472;-81
2022/02/27 11:49:44;;;;;;;29.30;12.57;;;21.60;53.70;;;;;;5111592;28;20409;-82
2022/02/27 11:52:15;;;;;;;37.40;16.23;;;21.60;53.70;;;;;;5094896;28;20424;-81
2022/02/27 11:54:57;;;;;;;21.60;12.50;;;21.60;53.80;;;;;;5088321;28;20413;-81
2022/02/27 11:57:32;;;;;;;30.30;13.03;;;21.70;53.80;;;;;;5101374;28;20411;-81
2022/02/27 12:00:19;;;;;;;29.43;16.37;;;21.70;53.90;;;;;;5086908;28;20474;-81
2022/02/27 12:02:53;;;;;;;27.13;14.27;;;21.60;53.80;;;;;;5090068;28;20427;-81
2022/02/27 12:05:42;;;;;;;36.63;14.63;;;21.60;53.80;;;;;;5097698;28;20411;-81
2022/02/27 12:08:15;;;;;;;27.03;13.63;;;21.60;53.90;;;;;;5108646;28;20508;-81
2022/02/27 12:11:30;;;;;;;32.10;14.30;;;21.60;53.90;;;;;;5092222;28;20419;-81
2022/02/27 12:14:19;;;;;;;28.87;14.50;;;21.60;53.90;;;;;;5028601;28;20420;-81
2022/02/27 12:16:58;;;;;;;24.97;13.90;;;21.60;53.90;;;;;;5045526;28;20405;-81
2022/02/27 12:19:35;;;;;;;31.40;14.57;;;21.60;53.90;;;;;;5043347;28;20573;-81
2022/02/27 12:22:10;;;;;;;36.57;14.87;;;21.60;53.80;;;;;;5056271;28;20413;-81
2022/02/27 12:24:37;;;;;;;27.37;13.00;;;21.60;53.80;;;;;;5057834;28;20422;-81
2022/02/27 12:27:05;;;;;;;33.47;13.50;;;21.60;53.80;;;;;;5061967;28;20466;-81
2022/02/27 12:29:51;;;;;;;34.33;14.73;;;21.60;53.90;;;;;;5055399;28;20414;-81
2022/02/27 12:35:54;;;;;;;35.17;15.87;;;21.60;54.00;;;;;;5041265;28;20447;-81
2022/02/27 12:38:26;;;;;;;28.33;14.47;;;21.60;54.00;;;;;;5066158;28;20453;-81
2022/02/27 12:41:08;;;;;;;33.33;14.80;;;21.60;54.00;;;;;;5063001;28;20449;-81
2022/02/27 12:43:44;;;;;;;36.13;17.47;;;21.60;54.00;;;;;;5058193;28;20398;-81
2022/02/27 12:46:25;;;;;;;29.47;15.60;;;21.60;54.00;;;;;;5070724;28;20389;-81
2022/02/27 12:51:42;;;;;;;26.63;13.80;;;21.60;54.00;;;;;;5111742;28;20479;-81
2022/02/27 12:54:34;;;;;;;26.27;15.00;;;21.60;54.00;;;;;;5079926;28;20416;-81
2022/02/27 12:57:07;;;;;;;29.73;15.10;;;21.60;54.00;;;;;;5108068;28;20408;-81
2022/02/27 12:59:38;;;;;;;25.07;13.97;;;21.60;54.00;;;;;;5084096;28;20452;-81
2022/02/27 13:02:29;;;;;;;31.70;13.53;;;21.60;54.00;;;;;;5073256;28;20408;-81
2022/02/27 13:05:00;;;;;;;26.83;13.37;;;21.60;54.00;;;;;;5073824;28;20393;-82
2022/02/27 13:07:34;;;;;;;27.70;13.47;;;21.60;54.00;;;;;;5105066;28;20413;-81
2022/02/27 13:10:09;;;;;;;30.37;14.60;;;21.60;53.90;;;;;;5071970;28;20420;-81
2022/02/27 13:12:39;;;;;;;30.40;13.93;;;21.60;53.90;;;;;;5088691;28;20467;-81
2022/02/27 13:15:06;;;;;;;23.10;11.90;;;21.60;53.90;;;;;;5099551;28;20391;-81
2022/02/27 13:17:38;;;;;;;30.10;14.47;;;21.60;53.90;;;;;;5091265;28;20420;-81
2022/02/27 13:20:10;;;;;;;26.30;13.07;;;21.60;53.90;;;;;;5086937;28;20447;-81
2022/02/27 13:22:41;;;;;;;23.80;13.10;;;21.60;54.00;;;;;;5102790;28;20460;-81
2022/02/27 13:25:13;;;;;;;25.13;13.50;;;21.60;54.00;;;;;;5071041;28;20473;-81
2022/02/27 13:28:04;;;;;;;24.83;12.30;;;21.60;53.90;;;;;;5092916;28;20426;-81